Time;durP1;ratioP1;P1;durP2;ratioP2;P2;SDS_P1;SDS_P2;PMS_P1;PMS_P2;Temp;Humidity;BMP_temperature;BMP_pressure;BME280_temperature;BME280_humidity;BME280_pressure;Samples;Min_cycle;Max_cycle;Signal;HPM_P1;HPM_P2
2021/05/07 00:00:37;;;;;;;;;;;;;;;15.97;41.92;100341.55;1824406;77;21161;-77
2021/05/07 00:03:05;;;;;;;20.88;12.93;;;;;;;15.98;41.88;100341.34;1751931;81;20226;-78
2021/05/07 00:05:32;;;;;;;22.70;13.65;;;;;;;15.99;41.87;100343.55;1756573;81;21217;-78
2021/05/07 00:07:59;;;;;;;;;;;;;;;15.98;41.77;100338.64;1752832;81;21161;-77
2021/05/07 00:10:27;;;;;;;20.07;12.83;;;;;;;15.98;41.63;100345.39;1755811;80;20215;-77
2021/05/07 00:12:54;;;;;;;20.20;12.45;;;;;;;15.95;41.72;100350.38;1754187;81;21177;-77
2021/05/07 00:15:22;;;;;;;23.50;12.98;;;;;;;15.95;41.71;100356.61;1753166;81;21126;-77
2021/05/07 00:17:49;;;;;;;21.20;12.58;;;;;;;15.96;41.70;100356.09;1752872;81;21126;-77
2021/05/07 00:20:16;;;;;;;27.02;13.72;;;;;;;15.95;41.69;100367.42;1772299;80;21121;-77
2021/05/07 00:22:44;;;;;;;23.80;12.85;;;;;;;15.94;41.74;100359.48;1774874;80;21125;-78
2021/05/07 00:25:13;;;;;;;21.05;12.43;;;;;;;15.93;41.70;100362.71;1773013;79;21157;-77
2021/05/07 00:27:40;;;;;;;;;;;;;;;15.91;41.42;100359.38;1778346;80;21193;-77
2021/05/07 00:30:09;;;;;;;16.20;10.48;;;;;;;15.90;41.36;100360.42;1774394;80;20303;-78
2021/05/07 00:32:36;;;;;;;17.30;11.00;;;;;;;15.90;41.30;100366.34;1768921;80;21556;-78
2021/05/07 00:35:05;;;;;;;19.07;10.98;;;;;;;15.88;41.28;100360.28;1775166;80;21590;-77
2021/05/07 00:37:33;;;;;;;16.02;11.15;;;;;;;15.90;41.30;100367.69;1777809;80;21172;-77
2021/05/07 00:40:00;;;;;;;;;;;;;;;15.87;41.33;100361.32;1774171;80;21626;-77
2021/05/07 00:42:27;;;;;;;20.65;10.98;;;;;;;15.87;41.32;100364.85;1778655;80;20171;-78
2021/05/07 00:44:54;;;;;;;;;;;;;;;15.85;41.29;100362.87;1768604;80;21168;-78
2021/05/07 00:47:21;;;;;;;17.60;10.40;;;;;;;15.85;41.27;100358.83;1778701;80;20210;-78
2021/05/07 00:49:49;;;;;;;16.00;10.48;;;;;;;15.84;41.22;100357.64;1774076;80;21195;-77
2021/05/07 00:52:16;;;;;;;;;;;;;;;15.82;41.21;100359.72;1777459;80;21168;-77
2021/05/07 00:54:44;;;;;;;15.68;10.53;;;;;;;15.79;41.10;100360.10;1780184;80;20253;-77
2021/05/07 00:57:12;;;;;;;20.10;11.00;;;;;;;15.71;41.15;100351.61;1774802;80;21117;-78
2021/05/07 00:59:40;;;;;;;18.62;10.60;;;;;;;15.68;41.18;100355.55;1774117;80;21141;-77
2021/05/07 01:02:07;;;;;;;20.15;11.12;;;;;;;15.65;41.21;100361.33;1773745;80;21219;-77
2021/05/07 01:04:34;;;;;;;22.62;11.65;;;;;;;15.61;41.24;100359.17;1767632;80;21141;-78
2021/05/07 01:07:02;;;;;;;17.15;10.43;;;;;;;15.56;41.38;100355.70;1752538;80;21646;-77
2021/05/07 01:09:29;;;;;;;19.15;11.00;;;;;;;15.53;41.47;100362.83;1747016;81;21212;-77
2021/05/07 01:11:56;;;;;;;;;;;;;;;15.51;41.44;100356.80;1754720;81;21614;-77
2021/05/07 01:14:23;;;;;;;21.07;12.05;;;;;;;15.49;41.23;100365.63;1765079;80;20218;-76
2021/05/07 01:16:51;;;;;;;17.27;11.40;;;;;;;15.39;41.20;100352.94;1775854;80;21122;-77
2021/05/07 01:19:19;;;;;;;20.82;11.68;;;;;;;15.28;41.24;100356.98;1772882;80;21201;-77
2021/05/07 01:21:46;;;;;;;17.48;11.30;;;;;;;15.18;41.32;100358.65;1774112;81;21098;-77
2021/05/07 01:24:15;;;;;;;18.65;11.33;;;;;;;15.09;41.31;100363.00;1773037;81;21176;-77
2021/05/07 01:26:43;;;;;;;17.85;10.58;;;;;;;15.01;41.48;100370.69;1775889;80;21619;-77
2021/05/07 01:29:12;;;;;;;17.37;11.28;;;;;;;14.96;41.59;100375.30;1776545;80;21553;-77
2021/05/07 01:31:45;;;;;;;19.10;11.45;;;;;;;14.94;41.62;100377.84;1776971;80;21216;-77
2021/05/07 01:34:13;;;;;;;15.15;10.43;;;;;;;14.85;41.73;100375.80;1774713;80;21516;-77
2021/05/07 01:36:40;;;;;;;20.43;10.48;;;;;;;14.77;41.87;100380.45;1774494;81;21171;-77
2021/05/07 01:39:08;;;;;;;16.15;10.53;;;;;;;14.73;42.09;100375.11;1774190;81;21189;-77
2021/05/07 01:41:35;;;;;;;;;;;;;;;14.70;42.08;100378.48;1776726;81;21095;-77
2021/05/07 01:44:06;;;;;;;20.88;11.90;;;;;;;14.70;42.19;100380.34;1774223;81;20231;-77
2021/05/07 01:46:33;;;;;;;20.37;13.10;;;;;;;14.75;42.20;100381.13;1774167;81;21058;-77
2021/05/07 01:49:02;;;;;;;20.97;15.08;;;;;;;14.82;42.12;100378.86;1774080;81;21125;-77
2021/05/07 01:51:29;;;;;;;28.45;16.82;;;;;;;14.89;42.09;100381.62;1773996;80;21114;-77
2021/05/07 01:53:59;;;;;;;30.02;15.72;;;;;;;14.93;42.08;100382.92;1774048;81;21145;-77
2021/05/07 01:56:26;;;;;;;22.98;14.35;;;;;;;14.95;41.94;100383.59;1774131;81;21069;-77
2021/05/07 01:58:56;;;;;;;23.57;13.90;;;;;;;14.99;41.93;100390.28;1774120;80;21505;-77
2021/05/07 02:01:23;;;;;;;;;;;;;;;15.02;41.85;100392.58;1776713;81;21067;-77
2021/05/07 02:03:52;;;;;;;23.15;13.55;;;;;;;15.06;41.77;100395.74;1774030;81;20215;-78
2021/05/07 02:06:21;;;;;;;23.35;13.85;;;;;;;15.05;41.78;100394.08;1774071;80;21113;-77
2021/05/07 02:08:51;;;;;;;28.80;14.68;;;;;;;15.08;41.72;100397.24;1768303;80;21127;-78
2021/05/07 02:11:18;;;;;;;28.85;14.68;;;;;;;15.11;41.69;100394.66;1760314;80;21150;-77
2021/05/07 02:13:46;;;;;;;23.85;14.10;;;;;;;15.13;41.61;100402.07;1765134;81;21118;-79
2021/05/07 02:16:14;;;;;;;29.12;14.50;;;;;;;15.14;41.55;100404.57;1774395;81;21102;-78
2021/05/07 02:18:43;;;;;;;25.05;14.55;;;;;;;15.15;41.50;100402.19;1774310;80;21137;-78
2021/05/07 02:21:12;;;;;;;32.42;16.48;;;;;;;15.16;41.38;100407.90;1774343;80;21153;-78
2021/05/07 02:23:39;;;;;;;31.87;15.90;;;;;;;15.16;41.34;100407.90;1774914;81;21130;-77
2021/05/07 02:26:06;;;;;;;27.07;16.17;;;;;;;15.16;41.30;100411.95;1775051;80;21520;-77
2021/05/07 02:28:38;;;;;;;31.05;16.80;;;;;;;15.12;41.26;100407.95;1774126;80;21137;-78
2021/05/07 02:31:08;;;;;;;32.30;17.52;;;;;;;15.13;41.18;100413.70;1774128;81;21111;-78
2021/05/07 02:33:38;;;;;;;33.78;18.67;;;;;;;15.16;41.08;100416.52;1772885;80;21384;-78
2021/05/07 02:36:06;;;;;;;34.98;18.90;;;;;;;15.18;40.98;100426.10;1772883;80;21177;-77
2021/05/07 02:38:36;;;;;;;39.20;20.35;;;;;;;15.19;40.92;100434.52;1775471;80;21643;-77
2021/05/07 02:41:03;;;;;;;39.38;21.15;;;;;;;15.20;40.84;100429.44;1773098;81;21184;-79
2021/05/07 02:43:30;;;;;;;36.38;22.15;;;;;;;15.23;40.74;100430.41;1773273;80;21243;-78
2021/05/07 02:45:58;;;;;;;36.17;23.30;;;;;;;15.26;40.64;100435.09;1775316;80;21180;-78
2021/05/07 02:48:25;;;;;;;35.92;22.58;;;;;;;15.26;40.58;100428.35;1773436;81;21520;-78
2021/05/07 02:50:53;;;;;;;50.12;24.65;;;;;;;15.19;40.53;100422.38;1774385;81;21054;-79
2021/05/07 02:53:20;;;;;;;73.62;24.65;;;;;;;15.15;40.65;100421.59;1774224;81;21663;-79
2021/05/07 02:55:48;;;;;;;65.80;24.37;;;;;;;15.15;40.64;100426.47;1774333;81;21145;-79
2021/05/07 02:58:15;;;;;;;;;;;;;;;15.17;40.61;100428.48;1778272;80;21484;-78
2021/05/07 03:00:43;;;;;;;41.48;21.90;;;;;;;15.20;40.62;100425.91;1774565;81;20286;-78
2021/05/07 03:03:10;;;;;;;;;;;;;;;15.18;40.59;100426.10;1769298;81;21624;-78
2021/05/07 03:05:37;;;;;;;35.80;21.65;;;;;;;15.20;40.57;100430.78;1755059;81;20282;-78
2021/05/07 03:08:05;;;;;;;34.35;21.35;;;;;;;15.15;40.64;100431.03;1758673;81;21177;-79
2021/05/07 03:10:33;;;;;;;39.18;21.48;;;;;;;15.15;40.66;100422.94;1758458;80;21190;-79
2021/05/07 03:13:01;;;;;;;37.33;21.70;;;;;;;15.13;40.68;100425.84;1757787;81;21221;-79
2021/05/07 03:15:29;;;;;;;33.08;20.50;;;;;;;15.12;40.69;100421.44;1763912;80;21182;-78
2021/05/07 03:17:56;;;;;;;38.10;21.23;;;;;;;15.12;40.69;100420.61;1772338;80;21161;-78
2021/05/07 03:20:23;;;;;;;;;;;;;;;15.13;40.70;100428.53;1766882;81;21126;-78
2021/05/07 03:22:50;;;;;;;27.45;18.65;;;;;;;15.17;40.71;100426.27;1757730;81;20254;-77
2021/05/07 03:25:17;;;;;;;;;;;;;;;15.16;40.70;100425.95;1765581;81;21523;-77
2021/05/07 03:27:45;;;;;;;31.27;17.35;;;;;;;15.18;40.53;100426.62;1752938;81;20262;-78
2021/05/07 03:30:13;;;;;;;25.17;16.42;;;;;;;15.17;40.59;100439.28;1748387;81;21221;-77
2021/05/07 03:32:41;;;;;;;29.70;16.77;;;;;;;15.25;40.58;100437.48;1773458;80;21180;-78
2021/05/07 03:35:11;;;;;;;30.92;17.12;;;;;;;15.29;40.59;100436.08;1773626;80;21178;-78
2021/05/07 03:37:39;;;;;;;35.43;17.27;;;;;;;15.34;40.47;100440.39;1774665;79;21193;-78
2021/05/07 03:40:10;;;;;;;;;;;;;;;15.38;40.42;100441.69;1775665;80;21197;-78
2021/05/07 03:42:45;;;;;;;25.88;14.35;;;;;;;15.45;40.30;100446.66;1764231;80;20299;-78
2021/05/07 03:45:15;;;;;;;24.87;12.75;;;;;;;15.49;40.29;100446.61;1772373;80;21193;-78
2021/05/07 03:47:44;;;;;;;26.30;15.98;;;;;;;15.52;40.16;100448.91;1787204;80;21181;-77
2021/05/07 03:50:12;;;;;;;32.88;18.45;;;;;;;15.58;40.14;100441.90;1787793;80;21118;-78
2021/05/07 03:52:45;;;;;;;27.48;15.15;;;;;;;15.64;40.00;100431.22;1787287;80;21120;-77
2021/05/07 03:55:11;;;;;;;23.80;13.90;;;;;;;15.74;39.82;100429.55;1786751;80;21212;-78
2021/05/07 03:57:39;;;;;;;23.25;14.07;;;;;;;15.85;39.68;100433.59;1767812;80;21224;-79
2021/05/07 04:00:10;;;;;;;30.80;16.75;;;;;;;15.95;39.65;100427.37;1788782;80;21161;-78
2021/05/07 04:02:41;;;;;;;29.27;16.57;;;;;;;16.05;39.50;100427.03;1787783;80;21206;-78
2021/05/07 04:05:10;;;;;;;31.25;17.60;;;;;;;16.10;39.28;100430.81;1785641;80;21637;-77
2021/05/07 04:07:38;;;;;;;30.88;16.48;;;;;;;16.15;39.47;100435.12;1773814;80;21204;-78
2021/05/07 04:10:15;;;;;;;33.70;16.27;;;;;;;16.24;39.56;100443.41;1755827;81;21165;-78
2021/05/07 04:15:02;;;;;;;29.18;15.25;;;;;;;16.43;39.31;100451.86;1771633;80;21607;-78
2021/05/07 04:17:29;;;;;;;29.70;15.38;;;;;;;16.49;39.34;100452.45;1779635;80;21213;-78
2021/05/07 04:19:57;;;;;;;29.05;16.50;;;;;;;16.57;39.31;100454.98;1785349;80;21176;-78
2021/05/07 04:22:24;;;;;;;26.80;15.70;;;;;;;16.64;39.08;100455.05;1784686;80;21185;-78
2021/05/07 04:24:53;;;;;;;21.45;13.22;;;;;;;16.66;38.87;100459.72;1780290;79;21209;-77
2021/05/07 04:27:20;;;;;;;18.87;10.80;;;;;;;16.69;38.67;100452.58;1765564;80;21173;-78
2021/05/07 04:29:47;;;;;;;;;;;;;;;16.77;38.13;100461.09;1746297;81;21188;-78
2021/05/07 04:32:14;;;;;;;20.15;8.75;;;;;;;16.83;37.89;100461.64;1772377;80;20274;-78
2021/05/07 04:34:42;;;;;;;19.02;8.28;;;;;;;16.94;37.71;100463.77;1774074;81;21165;-77
2021/05/07 04:37:10;;;;;;;20.43;10.25;;;;;;;17.07;37.52;100465.72;1773753;81;21187;-77
2021/05/07 04:39:37;;;;;;;;;;;;;;;17.25;37.27;100466.84;1774907;80;21247;-77
2021/05/07 04:42:06;;;;;;;25.75;10.93;;;;;;;17.38;36.84;100465.23;1767703;80;20274;-78
2021/05/07 04:44:33;;;;;;;45.23;16.70;;;;;;;17.45;36.72;100460.70;1771179;81;21095;-78
2021/05/07 04:47:00;;;;;;;24.55;12.58;;;;;;;17.53;36.57;100468.61;1741073;80;21157;-78
2021/05/07 04:49:28;;;;;;;23.62;11.03;;;;;;;17.59;36.57;100471.88;1757198;80;21205;-78
2021/05/07 04:51:55;;;;;;;27.45;11.65;;;;;;;17.66;36.52;100474.59;1758341;80;21145;-77
2021/05/07 04:54:25;;;;;;;31.17;11.63;;;;;;;17.69;36.50;100477.74;1750195;80;21209;-78
2021/05/07 04:56:52;;;;;;;22.67;11.18;;;;;;;17.82;36.42;100476.14;1747988;81;21380;-78
2021/05/07 04:59:19;;;;;;;;;;;;;;;17.92;36.49;100469.80;1714063;83;21406;-78
2021/05/07 05:01:46;;;;;;;25.17;11.55;;;;;;;18.00;36.40;100476.39;1709093;81;20277;-78
2021/05/07 05:04:13;;;;;;;28.10;11.90;;;;;;;18.08;36.32;100477.55;1731793;81;21573;-78
2021/05/07 05:06:40;;;;;;;;;;;;;;;18.20;36.22;100468.27;1740084;81;21215;-78
2021/05/07 05:09:09;;;;;;;26.27;11.35;;;;;;;18.32;36.02;100471.20;1700830;81;20277;-78
2021/05/07 05:11:36;;;;;;;27.95;11.25;;;;;;;18.43;35.82;100466.48;1770594;79;21133;-78
2021/05/07 05:14:05;;;;;;;30.27;11.53;;;;;;;18.53;35.43;100465.56;1767600;79;21521;-78
2021/05/07 05:16:33;;;;;;;22.58;10.55;;;;;;;18.62;35.04;100464.80;1770196;79;21212;-79
2021/05/07 05:19:00;;;;;;;32.78;11.33;;;;;;;18.61;35.07;100454.48;1773844;79;21786;-79
2021/05/07 05:21:27;;;;;;;;;;;;;;;18.68;35.04;100455.31;1776171;79;21233;-78
2021/05/07 05:23:54;;;;;;;38.92;13.48;;;;;;;18.74;34.62;100459.91;1776156;79;20334;-78
2021/05/07 05:26:21;;;;;;;60.90;19.32;;;;;;;18.77;34.69;100454.60;1774591;79;21216;-78
2021/05/07 05:28:49;;;;;;;54.08;16.62;;;;;;;18.81;34.47;100452.30;1772511;79;21192;-79
2021/05/07 05:31:16;;;;;;;60.28;17.15;;;;;;;18.84;34.48;100449.14;1771678;79;21184;-78
2021/05/07 05:33:43;;;;;;;66.45;18.62;;;;;;;18.87;34.38;100443.30;1773150;79;21267;-78
2021/05/07 05:36:17;;;;;;;64.67;20.32;;;;;;;18.92;34.76;100442.97;1766349;79;21202;-78
2021/05/07 05:38:48;;;;;;;84.75;22.25;;;;;;;19.01;34.77;100445.75;1750317;79;21156;-78
2021/05/07 05:41:15;;;;;;;58.25;16.30;;;;;;;19.12;34.79;100451.06;1771743;79;21595;-78
2021/05/07 05:43:42;;;;;;;;;;;;;;;19.19;34.25;100449.14;1772307;79;21148;-77
2021/05/07 05:46:10;;;;;;;32.28;10.72;;;;;;;19.24;33.89;100453.40;1771040;79;20271;-76
2021/05/07 05:48:38;;;;;;;24.02;9.70;;;;;;;19.31;33.43;100450.67;1771985;79;21128;-79
2021/05/07 05:51:05;;;;;;;;;;;;;;;19.36;33.62;100445.95;1778165;79;21101;-78
2021/05/07 05:53:33;;;;;;;14.23;5.97;;;;;;;19.46;34.04;100446.31;1773316;79;20454;-78
2021/05/07 05:56:00;;;;;;;12.30;6.08;;;;;;;19.62;34.06;100443.13;1775347;79;21661;-78
2021/05/07 05:58:31;;;;;;;7.90;5.08;;;;;;;19.82;33.80;100444.89;1774572;79;21141;-78
2021/05/07 06:00:56;;;;;;;7.10;4.12;;;;;;;19.96;32.46;100441.02;1774663;79;21406;-77
2021/05/07 06:03:23;;;;;;;;;;;;;;;20.07;31.97;100448.98;1777638;79;21109;-77
2021/05/07 06:05:51;;;;;;;4.90;3.33;;;;;;;20.14;30.58;100451.97;1773882;79;20574;-76
2021/05/07 06:08:19;;;;;;;10.48;4.42;;;;;;;20.22;30.38;100453.59;1767651;79;21599;-78
2021/05/07 06:10:47;;;;;;;6.20;3.30;;;;;;;20.30;30.13;100464.17;1772155;79;21993;-78
2021/05/07 06:13:15;;;;;;;6.97;2.60;;;;;;;20.42;30.17;100453.41;1773433;79;21193;-77
2021/05/07 06:15:42;;;;;;;3.30;2.22;;;;;;;20.62;31.02;100460.05;1774262;79;21241;-78
2021/05/07 06:18:10;;;;;;;4.35;2.33;;;;;;;20.83;29.15;100454.19;1771380;79;21200;-78
2021/05/07 06:20:37;;;;;;;7.67;2.37;;;;;;;21.02;29.56;100449.05;1773214;79;21213;-77
2021/05/07 06:23:04;;;;;;;;;;;;;;;21.27;29.56;100447.61;1778664;79;21215;-78
2021/05/07 06:25:35;;;;;;;6.10;2.22;;;;;;;21.51;28.83;100452.67;1771625;79;20292;-81
2021/05/07 06:28:03;;;;;;;6.55;2.20;;;;;;;21.63;27.57;100467.73;1770613;79;21204;-77
2021/05/07 06:30:31;;;;;;;6.40;2.67;;;;;;;21.67;27.37;100462.11;1768357;80;21252;-79
2021/05/07 06:32:58;;;;;;;3.37;2.37;;;;;;;21.65;27.53;100466.95;1773963;79;21240;-80
2021/05/07 06:35:26;;;;;;;3.60;2.33;;;;;;;21.70;27.91;100460.80;1776546;79;21263;-78
2021/05/07 06:37:53;;;;;;;4.97;1.95;;;;;;;21.75;28.10;100448.67;1775756;79;21201;-78
2021/05/07 06:40:21;;;;;;;4.10;2.85;;;;;;;21.87;28.54;100457.73;1774673;79;21208;-78
2021/05/07 06:42:53;;;;;;;5.12;2.35;;;;;;;21.95;27.61;100455.21;1783254;79;21176;-79
2021/05/07 06:52:53;;;;;;;6.35;3.90;;;;;;;22.38;27.89;100448.66;1818309;77;21523;-79
2021/05/07 06:55:21;;;;;;;6.47;3.80;;;;;;;22.57;29.23;100451.57;1793005;78;21176;-78
2021/05/07 06:57:50;;;;;;;6.12;4.10;;;;;;;22.81;30.00;100448.32;1805226;78;21366;-78
2021/05/07 07:00:18;;;;;;;10.78;4.92;;;;;;;23.04;30.09;100452.95;1814368;78;21212;-80
2021/05/07 07:02:45;;;;;;;12.68;5.40;;;;;;;23.27;30.14;100444.69;1812910;78;21188;-78
2021/05/07 07:05:13;;;;;;;5.97;4.92;;;;;;;23.50;30.38;100448.41;1812792;78;21207;-78
2021/05/07 07:07:40;;;;;;;8.78;4.22;;;;;;;23.71;29.85;100448.28;1814412;78;21243;-78
2021/05/07 07:10:10;;;;;;;4.72;3.75;;;;;;;23.92;30.12;100452.23;1802338;78;21136;-78
2021/05/07 07:12:43;;;;;;;10.58;4.20;;;;;;;24.04;29.49;100454.37;1821630;76;21438;-78
2021/05/07 07:15:51;;;;;;;6.40;2.92;;;;;;;24.14;29.79;100455.08;1863604;75;22658;-77
2021/05/07 07:18:21;;;;;;;;;;;;;;;24.16;30.38;100449.63;1835169;77;21536;-77
2021/05/07 07:20:48;;;;;;;8.40;4.58;;;;;;;24.29;30.00;100460.26;1804804;77;20269;-77
2021/05/07 07:23:16;;;;;;;13.93;3.65;;;;;;;24.29;29.51;100462.17;1838713;77;21164;-77
2021/05/07 07:25:44;;;;;;;11.80;4.15;;;;;;;24.33;30.37;100463.87;1835538;77;21145;-78
2021/05/07 07:28:11;;;;;;;5.22;2.98;;;;;;;24.41;30.69;100460.76;1838348;77;21112;-78
2021/05/07 07:30:39;;;;;;;7.87;3.02;;;;;;;24.49;30.18;100458.98;1805773;77;21109;-79
2021/05/07 07:33:06;;;;;;;6.92;2.20;;;;;;;24.58;29.45;100454.73;1840210;76;21017;-77
2021/05/07 07:35:34;;;;;;;3.83;1.70;;;;;;;24.63;26.64;100465.77;1836191;77;21145;-78
2021/05/07 07:38:01;;;;;;;2.55;1.87;;;;;;;24.60;26.22;100463.52;1837725;76;21113;-80
2021/05/07 07:40:31;;;;;;;5.00;1.50;;;;;;;24.58;25.13;100460.76;1807282;77;21755;-80
2021/05/07 07:43:10;;;;;;;1.98;1.17;;;;;;;24.59;25.24;100452.28;1834926;77;21059;-79
2021/05/07 07:45:37;;;;;;;;;;;;;;;24.66;23.81;100450.17;1807897;78;21667;-78
2021/05/07 07:48:06;;;;;;;3.17;1.40;;;;;;;24.71;22.59;100450.28;1775399;78;20282;-77
2021/05/07 07:50:34;;;;;;;7.42;1.92;;;;;;;24.69;21.52;100452.97;1785122;78;21806;-79
2021/05/07 07:53:01;;;;;;;3.77;1.75;;;;;;;24.52;21.28;100454.34;1782066;78;21086;-79
2021/05/07 07:55:30;;;;;;;7.17;2.37;;;;;;;24.39;21.52;100453.31;1781857;79;21082;-80
2021/05/07 07:57:57;;;;;;;30.55;5.83;;;;;;;24.37;22.78;100456.86;1783057;78;21117;-79
2021/05/07 08:00:25;;;;;;;;;;;;;;;24.42;22.25;100452.83;1772152;79;21133;-79
2021/05/07 08:02:55;;;;;;;6.20;2.50;;;;;;;24.42;22.11;100456.94;1772115;79;20160;-79
2021/05/07 08:05:22;;;;;;;3.83;1.42;;;;;;;24.41;22.55;100454.74;1745689;80;21451;-79
2021/05/07 08:07:51;;;;;;;10.90;1.60;;;;;;;24.42;21.87;100452.83;1798613;78;20995;-78
2021/05/07 08:10:19;;;;;;;4.33;1.22;;;;;;;24.38;20.85;100472.20;1770367;80;21137;-78
2021/05/07 08:12:48;;;;;;;2.55;1.55;;;;;;;24.21;20.45;100462.06;1771809;80;21212;-79
2021/05/07 08:15:15;;;;;;;3.75;0.90;;;;;;;24.08;20.80;100452.80;1769102;79;21204;-78
2021/05/07 08:17:42;;;;;;;4.47;1.10;;;;;;;24.00;20.94;100451.84;1800542;78;21188;-79
2021/05/07 08:20:12;;;;;;;7.62;1.12;;;;;;;23.92;21.17;100454.97;1799951;78;21168;-78
2021/05/07 08:22:39;;;;;;;3.52;1.02;;;;;;;23.83;20.35;100453.70;1795136;78;21356;-79
2021/05/07 08:25:10;;;;;;;;;;;;;;;23.71;20.62;100457.34;1802777;78;21057;-79
2021/05/07 08:27:39;;;;;;;1.95;1.60;;;;;;;23.65;21.72;100447.36;1772318;80;20585;-78
2021/05/07 08:30:10;;;;;;;2.10;1.42;;;;;;;23.72;21.86;100445.33;1769663;80;21123;-79
2021/05/07 08:32:37;;;;;;;2.87;1.95;;;;;;;23.81;22.06;100439.46;1777112;79;21093;-77
2021/05/07 08:35:06;;;;;;;1.85;1.30;;;;;;;23.88;22.30;100440.12;1771247;79;21477;-76
2021/05/07 08:37:40;;;;;;;3.55;1.05;;;;;;;23.93;21.17;100454.71;1773694;79;21643;-78
2021/05/07 08:40:03;;;;;;;3.37;1.10;;;;;;;23.87;19.83;100446.13;1775755;79;21627;-78
2021/05/07 08:42:30;;;;;;;2.62;0.95;;;;;;;23.72;20.16;100433.02;1780220;79;21089;-77
2021/05/07 08:44:57;;;;;;;1.65;0.80;;;;;;;23.67;20.50;100426.09;1779466;79;21699;-78
2021/05/07 08:47:25;;;;;;;12.45;4.72;;;;;;;23.65;20.97;100443.26;1779312;79;21157;-77
2021/05/07 08:49:53;;;;;;;4.47;1.05;;;;;;;23.58;20.59;100434.36;1781642;79;21222;-77
2021/05/07 08:52:20;;;;;;;;;;;;;;;23.46;20.59;100434.94;1784710;79;21018;-80
2021/05/07 08:54:48;;;;;;;;;;;;;;;23.39;21.38;100422.80;1777136;79;20624;-79
2021/05/07 08:57:16;;;;;;;1.77;1.22;;;;;;;23.39;22.00;100425.53;1781976;79;20281;-78
2021/05/07 08:59:46;;;;;;;1.50;0.93;;;;;;;23.45;22.41;100419.62;1785859;79;21002;-79
2021/05/07 09:02:31;;;;;;;1.30;0.62;;;;;;;23.45;21.41;100414.98;1750995;79;21140;-79
2021/05/07 09:04:59;;;;;;;6.50;1.32;;;;;;;23.44;20.88;100413.87;1774801;79;21221;-78
2021/05/07 09:07:30;;;;;;;1.12;0.90;;;;;;;23.38;21.47;100404.71;1803412;78;21122;-79
2021/05/07 09:10:00;;;;;;;3.95;0.98;;;;;;;23.40;22.03;100412.15;1773270;79;21109;-78
2021/05/07 09:12:41;;;;;;;1.17;0.70;;;;;;;23.42;21.44;100406.42;1800642;78;21131;-78
2021/05/07 09:15:07;;;;;;;5.67;1.02;;;;;;;23.37;20.52;100399.50;1785524;78;21252;-79
2021/05/07 09:17:38;;;;;;;1.37;0.90;;;;;;;23.27;20.63;100403.70;1799842;78;21220;-79
2021/05/07 09:20:13;;;;;;;1.17;0.78;;;;;;;23.21;20.85;100396.48;1807070;78;20991;-79
2021/05/07 09:22:44;;;;;;;2.95;0.65;;;;;;;23.20;21.10;100396.16;1795880;78;20958;-77
2021/05/07 09:25:17;;;;;;;2.83;1.00;;;;;;;23.22;20.99;100397.30;1802554;78;21262;-79
2021/05/07 09:27:45;;;;;;;6.08;1.70;;;;;;;23.27;21.37;100386.47;1766380;78;21128;-79
2021/05/07 09:30:27;;;;;;;3.52;0.80;;;;;;;23.33;22.09;100386.02;1774666;78;21608;-78
2021/05/07 09:32:55;;;;;;;1.35;0.88;;;;;;;23.38;21.00;100371.08;1768960;79;21121;-78
2021/05/07 09:35:30;;;;;;;0.90;0.90;;;;;;;23.44;21.25;100381.06;1799666;78;21090;-79
2021/05/07 09:38:01;;;;;;;7.03;1.37;;;;;;;23.45;21.23;100370.41;1801666;78;21766;-79
2021/05/07 09:40:29;;;;;;;3.52;0.80;;;;;;;23.48;21.73;100363.06;1779910;79;21169;-78
2021/05/07 09:43:15;;;;;;;2.25;0.72;;;;;;;23.56;20.88;100374.98;1779223;79;21166;-78
2021/05/07 09:45:45;;;;;;;1.57;0.60;;;;;;;23.60;20.59;100373.95;1781739;79;21120;-78
2021/05/07 09:48:26;;;;;;;1.45;1.00;;;;;;;23.55;20.34;100362.39;1783697;79;21109;-79
2021/05/07 09:51:02;;;;;;;5.95;2.37;;;;;;;23.54;20.97;100359.37;1781015;79;21137;-77
2021/05/07 09:53:34;;;;;;;3.33;0.90;;;;;;;23.59;20.99;100359.45;1793857;79;21650;-78
2021/05/07 09:56:15;;;;;;;9.70;1.20;;;;;;;23.65;21.49;100369.43;1784187;79;21097;-78
2021/05/07 09:58:43;;;;;;;3.33;0.85;;;;;;;23.74;21.10;100349.34;1783560;79;21125;-78
2021/05/07 10:01:10;;;;;;;3.90;0.85;;;;;;;23.82;20.89;100347.57;1787444;79;21105;-78
2021/05/07 10:03:38;;;;;;;2.25;1.10;;;;;;;23.86;20.72;100350.65;1787553;79;21117;-78
2021/05/07 10:06:06;;;;;;;3.50;1.37;;;;;;;23.91;21.51;100350.73;1786489;79;21164;-78
2021/05/07 10:08:44;;;;;;;;;;;;;;;23.92;20.73;100357.84;1787299;79;20988;-78
2021/05/07 10:11:13;;;;;;;8.13;1.00;;;;;;;23.88;20.64;100355.31;1783961;79;20246;-79
2021/05/07 10:13:42;;;;;;;2.77;0.80;;;;;;;23.79;19.78;100362.56;1789114;79;21137;-79
2021/05/07 10:16:09;;;;;;;;;;;;;;;23.59;19.74;100356.72;1776123;79;21125;-79
2021/05/07 10:18:38;;;;;;;2.33;0.75;;;;;;;23.57;20.24;100350.66;1776765;80;20513;-78
2021/05/07 10:21:12;;;;;;;4.05;0.88;;;;;;;23.54;20.60;100347.89;1774139;80;21106;-79
2021/05/07 10:23:52;;;;;;;5.75;1.10;;;;;;;23.53;20.69;100337.21;1767605;80;21077;-78
2021/05/07 10:26:32;;;;;;;1.70;0.90;;;;;;;23.54;20.52;100342.42;1837299;77;21370;-78
2021/05/07 10:29:01;;;;;;;1.52;1.20;;;;;;;23.49;21.05;100335.50;1844778;77;20963;-77
2021/05/07 10:31:29;;;;;;;3.60;1.00;;;;;;;23.49;21.90;100330.58;1823487;77;21283;-78
2021/05/07 10:34:01;;;;;;;3.47;1.05;;;;;;;23.53;21.42;100339.41;1825007;77;21170;-78
2021/05/07 10:36:42;;;;;;;3.62;0.70;;;;;;;23.55;21.01;100339.15;1823525;77;21145;-77
2021/05/07 10:39:32;;;;;;;3.87;1.10;;;;;;;23.60;20.60;100346.06;1820503;77;21081;-79
2021/05/07 10:42:01;;;;;;;1.35;0.70;;;;;;;23.58;20.55;100335.94;1818852;77;21115;-78
2021/05/07 10:44:31;;;;;;;1.30;1.00;;;;;;;23.55;20.70;100339.15;1835608;77;21173;-78
2021/05/07 10:47:06;;;;;;;1.22;1.00;;;;;;;23.54;20.90;100304.69;1839909;77;20982;-79
2021/05/07 10:49:41;;;;;;;2.25;0.80;;;;;;;23.58;21.68;100292.19;1846557;77;21538;-79
2021/05/07 10:52:10;;;;;;;5.25;0.88;;;;;;;23.63;21.28;100306.48;1838319;77;21161;-79
2021/05/07 10:54:53;;;;;;;1.50;1.07;;;;;;;23.64;21.03;100293.95;1845334;77;21209;-79
2021/05/07 10:57:27;;;;;;;1.07;0.90;;;;;;;23.63;20.67;100308.67;1847254;77;21177;-77
2021/05/07 11:00:02;;;;;;;2.17;1.05;;;;;;;23.55;20.76;100294.03;1834522;77;21178;-77
2021/05/07 11:02:29;;;;;;;6.10;1.02;;;;;;;23.50;21.53;100284.38;1813555;77;21177;-79
2021/05/07 11:04:57;;;;;;;2.27;0.95;;;;;;;23.52;21.59;100287.69;1841173;77;21663;-78
2021/05/07 11:07:29;;;;;;;1.17;0.50;;;;;;;23.52;21.39;100306.83;1794057;79;21244;-79
2021/05/07 11:10:06;;;;;;;2.42;1.00;;;;;;;23.51;21.02;100303.27;1763681;81;21174;-78
2021/05/07 11:12:36;;;;;;;1.82;0.88;;;;;;;23.48;20.83;100291.98;1773739;79;21200;-78
2021/05/07 11:15:07;;;;;;;2.87;0.90;;;;;;;23.43;20.82;100291.36;1772584;80;21225;-78
2021/05/07 11:17:35;;;;;;;2.30;0.70;;;;;;;23.41;21.18;100286.70;1694335;80;21065;-78
2021/05/07 11:20:03;;;;;;;0.82;0.70;;;;;;;23.42;20.89;100282.88;1751895;80;21189;-78
2021/05/07 11:22:30;;;;;;;1.85;0.90;;;;;;;23.38;21.01;100283.08;1773627;80;21153;-79
2021/05/07 11:24:58;;;;;;;2.17;1.07;;;;;;;23.38;21.33;100272.69;1776898;80;21156;-78
2021/05/07 11:27:29;;;;;;;2.08;0.70;;;;;;;23.39;21.61;100295.69;1782423;79;21189;-79
2021/05/07 11:30:11;;;;;;;6.22;0.98;;;;;;;23.37;21.50;100287.44;1785606;79;21154;-78
2021/05/07 11:32:37;;;;;;;5.53;1.02;;;;;;;23.34;21.77;100299.67;1845315;77;21098;-78
2021/05/07 11:35:12;;;;;;;4.67;1.25;;;;;;;23.29;21.88;100288.11;1815859;77;21649;-81
2021/05/07 11:37:42;;;;;;;4.65;1.90;;;;;;;23.27;22.74;100288.91;1851469;77;21093;-78
2021/05/07 11:40:14;;;;;;;6.12;1.15;;;;;;;23.29;23.29;100283.19;1846641;77;21089;-76
2021/05/07 11:42:45;;;;;;;2.12;1.10;;;;;;;23.30;22.66;100291.70;1824057;77;21097;-80